createdAt,value
2022-08-16T00:02:33.161Z,13.52
2022-08-16T00:05:00.703Z,9.90
2022-08-16T00:07:29.207Z,11.52
2022-08-16T00:09:57.320Z,11.70
2022-08-16T00:12:26.751Z,10.13
2022-08-16T00:14:56.776Z,12.05
2022-08-16T00:17:24.333Z,11.97
2022-08-16T00:19:53.428Z,12.07
2022-08-16T00:22:21.156Z,13.07
2022-08-16T00:24:52.844Z,13.32
2022-08-16T00:27:22.406Z,14.77
2022-08-16T00:30:08.379Z,15.45
2022-08-16T00:32:40.015Z,15.38
2022-08-16T00:35:15.141Z,13.10
2022-08-16T00:37:57.016Z,11.98
2022-08-16T00:40:34.450Z,11.77
2022-08-16T00:43:11.911Z,11.98
2022-08-16T00:45:58.226Z,11.48
2022-08-16T00:48:31.194Z,11.77
2022-08-16T00:50:59.837Z,11.50
2022-08-16T00:53:27.478Z,14.95
2022-08-16T00:58:32.257Z,11.82
2022-08-16T01:01:08.214Z,14.55
2022-08-16T01:03:41.636Z,15.57
2022-08-16T01:06:40.160Z,16.25
2022-08-16T01:08:59.928Z,14.73
2022-08-16T01:11:29.485Z,13.65
2022-08-16T01:14:02.595Z,13.20
2022-08-16T01:16:32.279Z,14.82
2022-08-16T01:19:03.063Z,13.23
2022-08-16T01:21:39.720Z,13.32
2022-08-16T01:24:53.576Z,14.77
2022-08-16T01:27:11.732Z,14.98
2022-08-16T01:29:58.196Z,16.02
2022-08-16T01:32:33.699Z,16.52
2022-08-16T01:35:06.826Z,16.42
2022-08-16T01:40:16.313Z,17.92
2022-08-16T01:42:49.594Z,18.77
2022-08-16T01:54:00.069Z,18.25
2022-08-16T01:56:37.769Z,17.05
2022-08-16T01:59:07.649Z,17.00
2022-08-16T02:01:44.497Z,20.75
2022-08-16T02:04:49.149Z,18.88
2022-08-16T02:07:08.923Z,15.85
2022-08-16T02:09:40.878Z,17.50
2022-08-16T02:12:50.274Z,15.75
2022-08-16T02:14:57.004Z,14.90
2022-08-16T02:17:28.401Z,14.73
2022-08-16T02:19:59.114Z,15.23
2022-08-16T02:22:34.777Z,15.20
2022-08-16T02:25:10.057Z,16.95
2022-08-16T02:27:41.010Z,18.98
2022-08-16T02:30:36.923Z,16.55
2022-08-16T02:33:03.262Z,19.80
2022-08-16T02:35:31.637Z,21.88
2022-08-16T02:38:01.729Z,18.52
2022-08-16T02:40:37.371Z,17.38
2022-08-16T02:43:21.270Z,17.85
2022-08-16T02:45:58.949Z,21.50
2022-08-16T02:48:31.139Z,19.90
2022-08-16T02:51:06.291Z,18.25
2022-08-16T02:53:43.307Z,20.05
2022-08-16T02:56:14.955Z,18.60
2022-08-16T02:58:45.235Z,22.90
2022-08-16T03:01:25.339Z,23.03
2022-08-16T03:04:28.834Z,19.77
2022-08-16T03:06:56.167Z,20.80
2022-08-16T03:09:36.391Z,23.25
2022-08-16T03:12:05.637Z,24.08
2022-08-16T03:14:35.511Z,22.67
2022-08-16T03:17:04.909Z,21.67
2022-08-16T03:19:46.899Z,23.13
2022-08-16T03:22:19.121Z,22.48
2022-08-16T03:24:58.453Z,20.23
2022-08-16T03:27:31.233Z,20.85
2022-08-16T03:30:16.432Z,21.98
2022-08-16T03:32:51.804Z,21.35
2022-08-16T03:35:32.713Z,23.48
2022-08-16T03:38:34.201Z,24.85
2022-08-16T03:40:57.704Z,26.63
2022-08-16T03:43:51.326Z,25.60
2022-08-16T03:49:12.169Z,26.17
2022-08-16T03:51:39.721Z,24.83
2022-08-16T03:54:12.316Z,20.85
2022-08-16T03:56:56.892Z,22.90
2022-08-16T03:59:29.251Z,24.25
2022-08-16T04:01:58.664Z,25.33
2022-08-16T04:04:33.024Z,26.13
2022-08-16T04:07:06.955Z,26.70
2022-08-16T04:09:38.202Z,27.42
2022-08-16T04:12:53.398Z,29.08
2022-08-16T04:14:58.330Z,31.35
2022-08-16T04:17:27.819Z,27.02
2022-08-16T04:19:58.164Z,28.45
2022-08-16T04:22:27.956Z,30.08
2022-08-16T04:24:59.918Z,29.70
2022-08-16T04:27:34.568Z,27.95
2022-08-16T04:30:05.229Z,28.25
2022-08-16T04:32:43.839Z,30.70
2022-08-16T04:35:19.591Z,28.10
2022-08-16T04:37:53.949Z,29.27
2022-08-16T04:40:27.928Z,25.23
2022-08-16T04:42:57.390Z,26.83
2022-08-16T04:45:35.944Z,34.63
2022-08-16T04:48:10.435Z,30.10
2022-08-16T04:50:57.936Z,28.15
2022-08-16T04:53:41.243Z,28.23
2022-08-16T04:56:11.151Z,27.50
2022-08-16T04:58:46.089Z,24.45
2022-08-16T05:01:17.735Z,26.65
2022-08-16T05:03:59.783Z,22.48
2022-08-16T05:06:42.155Z,24.13
2022-08-16T05:09:19.160Z,27.67
2022-08-16T05:11:52.029Z,24.08
2022-08-16T05:14:45.293Z,24.65
2022-08-16T05:17:11.934Z,22.95
2022-08-16T05:19:40.918Z,20.85
2022-08-16T05:22:17.451Z,18.17
2022-08-16T05:24:47.302Z,19.67
2022-08-16T05:27:14.355Z,20.05
2022-08-16T05:30:00.693Z,16.55
2022-08-16T05:32:32.604Z,19.10
2022-08-16T05:35:10.989Z,18.15
2022-08-16T05:37:42.137Z,17.63
2022-08-16T05:40:13.696Z,17.25
2022-08-16T05:42:49.633Z,22.52
2022-08-16T05:45:22.176Z,20.85
2022-08-16T05:47:59.431Z,20.33
2022-08-16T05:50:34.031Z,19.17
2022-08-16T05:53:03.031Z,20.63
2022-08-16T05:55:30.273Z,20.95
2022-08-16T05:58:05.679Z,18.65
2022-08-16T06:00:33.771Z,20.48
2022-08-16T06:03:02.123Z,21.20
2022-08-16T06:05:49.283Z,17.67
2022-08-16T06:08:31.646Z,21.65
2022-08-16T06:11:10.247Z,19.33
2022-08-16T06:13:42.792Z,18.05
2022-08-16T06:16:18.488Z,18.13
2022-08-16T06:18:49.225Z,18.98
2022-08-16T06:21:22.803Z,18.05
2022-08-16T06:23:54.854Z,19.25
2022-08-16T06:26:23.803Z,17.88
2022-08-16T06:29:02.446Z,19.98
2022-08-16T06:31:45.273Z,18.40
2022-08-16T06:34:55.010Z,18.92
2022-08-16T06:37:04.288Z,18.92
2022-08-16T06:39:46.713Z,19.95
2022-08-16T06:42:29.875Z,18.27
2022-08-16T06:45:13.213Z,18.63
2022-08-16T06:47:54.219Z,20.20
2022-08-16T06:50:29.476Z,18.60
2022-08-16T06:53:06.735Z,20.38
2022-08-16T06:55:38.587Z,18.98
2022-08-16T06:58:21.739Z,16.52
2022-08-16T07:00:59.789Z,17.65
2022-08-16T07:03:32.425Z,17.40
2022-08-16T07:06:04.148Z,17.73
2022-08-16T07:08:37.825Z,18.83
2022-08-16T07:11:09.443Z,18.10
2022-08-16T07:14:00.434Z,19.25
2022-08-16T07:16:27.792Z,19.25
2022-08-16T07:18:58.915Z,21.02
2022-08-16T07:21:45.577Z,16.00
2022-08-16T07:24:30.162Z,16.50
2022-08-16T07:27:02.450Z,16.95
2022-08-16T07:29:33.434Z,17.08
2022-08-16T07:32:01.359Z,16.58
2022-08-16T07:34:35.019Z,16.83
2022-08-16T07:37:06.676Z,17.98
2022-08-16T07:39:54.532Z,15.50
2022-08-16T07:42:28.566Z,15.98
2022-08-16T07:45:02.283Z,17.10
2022-08-16T07:47:31.563Z,18.60
2022-08-16T07:50:05.114Z,19.57
2022-08-16T07:52:39.010Z,18.15
2022-08-16T07:55:11.533Z,17.92
2022-08-16T07:57:58.039Z,19.13
2022-08-16T08:00:28.592Z,19.00
2022-08-16T08:03:00.363Z,19.67
2022-08-16T08:05:35.821Z,19.25
2022-08-16T08:08:11.587Z,18.40
2022-08-16T08:10:40.774Z,18.80
2022-08-16T08:13:08.319Z,17.67
2022-08-16T08:15:38.799Z,20.15
2022-08-16T08:18:29.480Z,18.30
2022-08-16T08:20:59.878Z,20.60
2022-08-16T08:23:30.099Z,19.80
2022-08-16T08:25:59.654Z,21.50
2022-08-16T08:28:29.073Z,23.33
2022-08-16T08:31:03.581Z,21.50
2022-08-16T08:33:35.514Z,19.95
2022-08-16T08:36:07.317Z,21.55
2022-08-16T08:38:43.768Z,23.98
2022-08-16T08:41:15.456Z,20.83
2022-08-16T08:43:50.318Z,26.48
2022-08-16T08:46:21.224Z,21.02
2022-08-16T08:51:31.809Z,22.45
2022-08-16T08:54:00.246Z,19.92
2022-08-16T08:56:34.798Z,21.38
2022-08-16T08:59:22.326Z,19.58
2022-08-16T09:01:57.334Z,18.90
2022-08-16T09:04:29.480Z,20.10
2022-08-16T09:06:58.403Z,21.27
2022-08-16T09:09:33.674Z,21.00
2022-08-16T09:12:07.332Z,17.73
2022-08-16T09:14:50.927Z,18.63
2022-08-16T09:20:16.672Z,18.60
2022-08-16T09:22:51.428Z,18.38
2022-08-16T09:25:26.089Z,18.02
2022-08-16T09:28:08.981Z,18.08
2022-08-16T09:30:44.127Z,17.23
2022-08-16T09:33:18.576Z,18.23
2022-08-16T09:35:53.207Z,18.63
2022-08-16T09:38:31.393Z,16.58
2022-08-16T09:41:00.994Z,16.35
2022-08-16T09:43:59.075Z,15.38
2022-08-16T09:46:48.178Z,15.60
2022-08-16T09:49:04.600Z,14.88
2022-08-16T09:51:37.202Z,15.63
2022-08-16T09:54:05.221Z,16.45
2022-08-16T09:56:35.330Z,14.60
2022-08-16T09:59:08.297Z,14.13
2022-08-16T10:01:36.448Z,17.20
2022-08-16T10:04:08.976Z,15.73
2022-08-16T10:06:52.916Z,16.75
2022-08-16T10:09:20.874Z,15.38
2022-08-16T10:12:11.610Z,15.60
2022-08-16T10:14:48.441Z,14.45
2022-08-16T10:17:15.621Z,18.38
2022-08-16T10:19:47.042Z,13.60
2022-08-16T10:22:17.705Z,20.33
2022-08-16T10:24:55.843Z,15.05
2022-08-16T10:27:45.761Z,13.05
2022-08-16T10:30:25.663Z,13.68
2022-08-16T10:32:55.985Z,14.43
2022-08-16T10:35:23.261Z,11.82
2022-08-16T10:37:52.326Z,12.45
2022-08-16T10:40:29.047Z,15.00
2022-08-16T10:42:59.977Z,13.85
2022-08-16T10:45:37.223Z,12.65
2022-08-16T10:48:27.261Z,13.32
2022-08-16T10:50:57.885Z,10.88
2022-08-16T10:53:26.435Z,12.95
2022-08-16T10:56:01.265Z,13.20
2022-08-16T10:58:34.414Z,11.10
2022-08-16T11:03:54.176Z,13.20
2022-08-16T11:14:31.897Z,11.20
2022-08-16T11:17:09.301Z,14.07
2022-08-16T11:22:42.064Z,13.43
2022-08-16T11:26:06.364Z,8.38
2022-08-16T11:28:06.402Z,8.70
2022-08-16T11:30:38.724Z,10.07
2022-08-16T11:33:09.085Z,9.93
2022-08-16T11:35:43.752Z,11.07
2022-08-16T11:38:46.897Z,10.18
2022-08-16T11:41:04.205Z,10.70
2022-08-16T11:43:33.798Z,12.15
2022-08-16T11:46:43.740Z,12.45
2022-08-16T11:48:58.512Z,11.93
2022-08-16T11:51:25.702Z,11.85
2022-08-16T11:53:53.031Z,12.00
2022-08-16T11:56:39.677Z,11.48
2022-08-16T11:59:08.480Z,12.45
2022-08-16T12:01:54.914Z,10.02
2022-08-16T12:04:24.837Z,10.55
2022-08-16T12:06:53.749Z,11.48
2022-08-16T12:09:21.954Z,11.93
2022-08-16T12:11:53.003Z,10.63
2022-08-16T12:14:23.089Z,10.88
2022-08-16T12:16:55.485Z,9.25
2022-08-16T12:19:35.596Z,11.50
2022-08-16T12:22:05.971Z,11.57
2022-08-16T12:24:47.990Z,13.20
2022-08-16T12:27:19.998Z,13.13
2022-08-16T12:29:51.392Z,11.07
2022-08-16T12:32:38.019Z,12.68
2022-08-16T12:35:10.548Z,9.77
2022-08-16T12:37:38.798Z,10.95
2022-08-16T12:40:23.673Z,14.63
2022-08-16T12:42:54.346Z,10.40
2022-08-16T12:45:23.860Z,9.20
2022-08-16T12:48:32.617Z,9.05
2022-08-16T12:51:01.225Z,8.73
2022-08-16T12:53:32.121Z,10.45
2022-08-16T12:56:00.545Z,11.23
2022-08-16T12:58:49.468Z,12.93
2022-08-16T13:01:15.537Z,13.30
2022-08-16T13:03:44.695Z,9.73
2022-08-16T13:06:20.138Z,8.63
2022-08-16T13:09:00.095Z,7.78
2022-08-16T13:14:05.275Z,8.85
2022-08-16T13:16:32.483Z,10.93
2022-08-16T13:19:01.476Z,8.18
2022-08-16T13:21:30.047Z,7.13
2022-08-16T13:23:57.275Z,7.38
2022-08-16T13:26:26.769Z,6.80
2022-08-16T13:28:54.256Z,7.43
2022-08-16T13:31:21.856Z,9.25
2022-08-16T13:33:51.876Z,10.63
2022-08-16T13:36:47.911Z,9.23
2022-08-16T13:39:14.518Z,9.00
2022-08-16T13:41:41.609Z,6.82
2022-08-16T13:44:09.152Z,7.90
2022-08-16T13:46:36.998Z,7.60
2022-08-16T13:49:05.147Z,7.00
2022-08-16T13:51:32.739Z,7.88
2022-08-16T13:54:04.595Z,6.75
2022-08-16T13:56:38.792Z,11.63
2022-08-16T13:59:19.447Z,9.38
2022-08-16T14:01:55.367Z,8.43
2022-08-16T14:04:26.343Z,7.43
2022-08-16T14:06:55.186Z,8.80
2022-08-16T14:09:24.626Z,8.80
2022-08-16T14:11:56.356Z,7.07
2022-08-16T14:14:28.923Z,10.82
2022-08-16T14:16:58.472Z,6.30
2022-08-16T14:19:26.562Z,8.85
2022-08-16T14:22:13.464Z,6.50
2022-08-16T14:24:41.103Z,8.50
2022-08-16T14:27:14.893Z,6.95
2022-08-16T14:29:42.810Z,9.65
2022-08-16T14:32:10.035Z,8.73
2022-08-16T14:34:58.689Z,7.63
2022-08-16T14:37:26.710Z,6.32
2022-08-16T14:39:55.237Z,7.95
2022-08-16T14:42:25.299Z,8.70
2022-08-16T14:44:53.319Z,9.27
2022-08-16T14:47:22.372Z,12.40
2022-08-16T14:49:52.569Z,15.32
2022-08-16T14:52:51.857Z,10.45
2022-08-16T14:55:11.711Z,10.05
2022-08-16T14:57:40.721Z,13.65
2022-08-16T15:00:11.654Z,12.15
2022-08-16T15:02:40.423Z,10.85
2022-08-16T15:05:10.696Z,11.93
2022-08-16T15:07:40.270Z,9.40
2022-08-16T15:10:21.482Z,12.23
2022-08-16T15:12:56.378Z,11.10
2022-08-16T15:15:27.540Z,8.48
2022-08-16T15:17:56.446Z,10.43
2022-08-16T15:20:26.281Z,13.20
2022-08-16T15:22:54.690Z,11.30
2022-08-16T15:25:29.149Z,9.23
2022-08-16T15:28:04.549Z,8.82
2022-08-16T15:31:00.609Z,10.63
2022-08-16T15:33:25.299Z,9.45
2022-08-16T15:35:57.816Z,12.55
2022-08-16T15:38:55.029Z,9.18
2022-08-16T15:41:31.510Z,12.20
2022-08-16T15:44:05.294Z,12.13
2022-08-16T15:46:55.052Z,12.52
2022-08-16T15:49:37.347Z,11.25
2022-08-16T15:52:10.380Z,11.68
2022-08-16T15:54:52.960Z,10.82
2022-08-16T15:57:21.552Z,13.48
2022-08-16T15:59:52.675Z,18.65
2022-08-16T16:02:29.323Z,15.18
2022-08-16T16:05:01.611Z,12.45
2022-08-16T16:07:31.960Z,14.98
2022-08-16T16:09:59.614Z,13.52
2022-08-16T16:12:53.062Z,14.27
2022-08-16T16:15:16.545Z,12.13
2022-08-16T16:17:44.004Z,11.10
2022-08-16T16:20:18.643Z,11.90
2022-08-16T16:22:46.589Z,9.60
2022-08-16T16:25:15.916Z,9.73
2022-08-16T16:27:44.077Z,13.02
2022-08-16T16:30:37.981Z,9.55
2022-08-16T16:33:02.881Z,10.98
2022-08-16T16:35:32.746Z,9.05
2022-08-16T16:38:00.187Z,11.13
2022-08-16T16:40:32.582Z,10.20
2022-08-16T16:43:00.618Z,9.00
2022-08-16T16:45:33.503Z,11.13
2022-08-16T16:48:12.690Z,9.90
2022-08-16T16:50:45.321Z,7.68
2022-08-16T16:53:17.803Z,7.85
2022-08-16T16:55:51.634Z,8.38
2022-08-16T16:58:38.128Z,8.63
2022-08-16T17:01:05.435Z,9.73
2022-08-16T17:03:35.509Z,6.90
2022-08-16T17:06:09.093Z,8.73
2022-08-16T17:08:37.898Z,10.98
2022-08-16T17:11:09.019Z,11.45
2022-08-16T17:13:36.471Z,9.80
2022-08-16T17:16:04.209Z,9.82
2022-08-16T17:18:36.965Z,7.97
2022-08-16T17:21:21.180Z,10.05
2022-08-16T17:26:37.994Z,10.80
2022-08-16T17:29:11.205Z,8.65
2022-08-16T17:31:43.104Z,10.68
2022-08-16T17:34:30.546Z,12.32
2022-08-16T17:37:05.446Z,12.23
2022-08-16T17:39:26.678Z,10.33
2022-08-16T17:39:58.065Z,12.70
2022-08-16T17:42:24.431Z,7.90
2022-08-16T17:44:52.742Z,9.60
2022-08-16T17:47:21.757Z,9.98
2022-08-16T17:49:48.891Z,11.10
2022-08-16T17:52:17.639Z,9.90
2022-08-16T17:54:45.289Z,8.32
2022-08-16T17:57:12.940Z,9.15
2022-08-16T17:59:41.207Z,7.10
2022-08-16T18:02:42.560Z,14.13
2022-08-16T18:04:57.221Z,7.47
2022-08-16T18:07:26.210Z,13.07
2022-08-16T18:09:53.450Z,12.50
2022-08-16T18:12:54.208Z,13.65
2022-08-16T18:15:15.477Z,9.70
2022-08-16T18:17:43.887Z,13.48
2022-08-16T18:20:33.300Z,10.85
2022-08-16T18:23:07.594Z,15.93
2022-08-16T18:25:34.893Z,8.52
2022-08-16T18:28:02.890Z,11.50
2022-08-16T18:30:29.965Z,9.30
2022-08-16T18:32:57.404Z,12.07
2022-08-16T18:35:24.571Z,11.68
2022-08-16T18:37:51.853Z,10.82
2022-08-16T18:40:20.592Z,14.05
2022-08-16T18:42:56.533Z,13.55
2022-08-16T18:45:24.931Z,21.98
2022-08-16T18:48:06.897Z,29.92
2022-08-16T18:51:03.210Z,25.85
2022-08-16T18:53:23.440Z,28.23
2022-08-16T18:55:57.227Z,30.50
2022-08-16T18:58:24.911Z,26.20
2022-08-16T19:00:57.027Z,31.02
2022-08-16T19:03:27.961Z,31.15
2022-08-16T19:05:57.983Z,31.02
2022-08-16T19:08:25.994Z,31.40
2022-08-16T19:10:54.867Z,29.85
2022-08-16T19:13:26.885Z,31.15
2022-08-16T19:16:33.262Z,29.10
2022-08-16T19:19:00.599Z,35.63
2022-08-16T19:21:28.202Z,29.38
2022-08-16T19:23:56.429Z,31.30
2022-08-16T19:26:27.788Z,32.67
2022-08-16T19:29:03.616Z,35.10
2022-08-16T19:31:35.727Z,36.65
2022-08-16T19:34:04.453Z,32.10
2022-08-16T19:36:35.100Z,35.38
2022-08-16T19:39:06.385Z,35.28
2022-08-16T19:41:37.639Z,40.05
2022-08-16T19:44:06.447Z,41.15
2022-08-16T19:46:34.683Z,36.28
2022-08-16T19:49:02.004Z,42.40
2022-08-16T19:51:29.718Z,34.95
2022-08-16T19:53:57.033Z,39.95
2022-08-16T19:56:27.091Z,37.45
2022-08-16T19:59:17.960Z,39.33
2022-08-16T20:01:43.938Z,37.42
2022-08-16T20:04:14.805Z,36.50
2022-08-16T20:06:42.402Z,38.60
2022-08-16T20:09:12.634Z,38.78
2022-08-16T20:11:43.498Z,40.85
2022-08-16T20:14:24.257Z,37.55
2022-08-16T20:16:54.285Z,36.58
2022-08-16T20:19:21.422Z,37.83
2022-08-16T20:21:48.603Z,36.25
2022-08-16T20:24:33.603Z,36.05
2022-08-16T20:27:02.293Z,46.75
2022-08-16T20:29:31.053Z,38.45
2022-08-16T20:31:58.322Z,39.03
2022-08-16T20:34:25.729Z,42.47
2022-08-16T20:36:52.884Z,38.63
2022-08-16T20:39:19.991Z,40.50
2022-08-16T20:41:47.110Z,40.15
2022-08-16T20:44:14.200Z,39.75
2022-08-16T20:46:43.344Z,40.25
2022-08-16T20:49:10.661Z,41.10
2022-08-16T20:51:46.780Z,41.25
2022-08-16T20:54:16.177Z,42.60
2022-08-16T20:56:43.255Z,42.42
2022-08-16T20:59:10.381Z,47.78
2022-08-16T21:01:46.647Z,44.83
2022-08-16T21:04:20.193Z,43.43
2022-08-16T21:06:52.959Z,53.28
2022-08-16T21:09:23.891Z,47.50
2022-08-16T21:11:53.088Z,52.60
2022-08-16T21:14:20.338Z,48.10
2022-08-16T21:16:48.049Z,53.30
2022-08-16T21:19:15.395Z,52.40
2022-08-16T21:21:43.841Z,51.08
2022-08-16T21:24:11.216Z,50.70
2022-08-16T21:26:39.090Z,52.97
2022-08-16T21:29:07.823Z,48.50
2022-08-16T21:31:40.792Z,55.83
2022-08-16T21:34:08.625Z,50.90
2022-08-16T21:36:36.769Z,51.58
2022-08-16T21:39:06.602Z,54.60
2022-08-16T21:41:34.671Z,56.10
2022-08-16T21:44:01.789Z,57.17
2022-08-16T21:46:28.961Z,53.67
2022-08-16T21:48:56.025Z,57.45
2022-08-16T21:51:23.185Z,57.47
2022-08-16T21:53:51.272Z,52.13
2022-08-16T21:56:19.805Z,53.47
2022-08-16T21:58:52.775Z,54.25
2022-08-16T22:01:21.268Z,52.17
2022-08-16T22:03:48.432Z,53.75
2022-08-16T22:06:31.053Z,54.28
2022-08-16T22:08:58.329Z,51.67
2022-08-16T22:11:26.985Z,57.83
2022-08-16T22:13:58.725Z,55.00
2022-08-16T22:16:29.081Z,51.53
2022-08-16T22:18:56.272Z,50.40
2022-08-16T22:21:23.581Z,46.13
2022-08-16T22:23:56.919Z,49.08
2022-08-16T22:26:30.341Z,44.58
2022-08-16T22:28:59.302Z,45.08
2022-08-16T22:31:27.374Z,46.05
2022-08-16T22:33:56.024Z,43.60
2022-08-16T22:36:23.204Z,40.13
2022-08-16T22:38:55.737Z,40.28
2022-08-16T22:41:26.876Z,46.08
2022-08-16T22:43:54.014Z,40.80
2022-08-16T22:46:21.189Z,40.42
2022-08-16T22:48:51.219Z,41.17
2022-08-16T22:51:19.170Z,43.78
2022-08-16T22:53:46.459Z,39.58
2022-08-16T22:56:15.474Z,39.03
2022-08-16T22:58:44.668Z,38.67
2022-08-16T23:01:13.540Z,40.60
2022-08-16T23:03:41.924Z,38.58
2022-08-16T23:06:10.258Z,40.85
2022-08-16T23:08:40.905Z,38.40
2022-08-16T23:11:10.431Z,37.00
2022-08-16T23:13:38.401Z,38.58
2022-08-16T23:16:22.528Z,37.10
2022-08-16T23:18:49.721Z,34.65
2022-08-16T23:21:17.967Z,34.33
2022-08-16T23:23:49.003Z,35.10
2022-08-16T23:29:04.461Z,34.28
2022-08-16T23:31:34.501Z,33.25
2022-08-16T23:34:01.949Z,34.25
2022-08-16T23:36:29.071Z,33.55
2022-08-16T23:38:56.226Z,33.70
2022-08-16T23:41:23.804Z,31.13
2022-08-16T23:43:51.169Z,30.92
2022-08-16T23:46:19.498Z,28.92
2022-08-16T23:49:59.139Z,29.85
2022-08-16T23:51:35.113Z,31.00
2022-08-16T23:54:02.354Z,30.40
2022-08-16T23:56:29.973Z,32.10
2022-08-16T23:59:07.710Z,31.58
